Time,TemperatureF,DewpointF,PressureIn,WindDirection,WindDirectionDegrees,WindSpeedMPH,WindSpeedGustMPH,Humidity,HourlyPrecipIn,Conditions,Clouds,dailyrainin,SoftwareType,DateUTC
2013-08-23 00:13:00,78.0,66.0,29.76,North,360,0.0,0.0,67,0.00,,,0.00,,2013-08-23 05:13:00,
2013-08-23 00:22:00,78.0,66.0,29.76,North,360,0.0,0.0,67,0.00,,,0.00,,2013-08-23 05:22:00,
2013-08-23 00:34:00,78.0,66.0,29.76,North,360,0.0,0.0,67,0.00,,,0.00,,2013-08-23 05:34:00,
2013-08-23 00:53:00,77.0,65.0,29.78,NE,45,0.0,0.0,67,0.00,,,0.00,,2013-08-23 05:53:00,
2013-08-23 01:12:00,77.0,66.0,29.78,North,360,0.0,0.0,68,0.00,,,0.00,,2013-08-23 06:12:00,
2013-08-23 01:22:00,76.0,65.0,29.78,North,360,0.0,0.0,70,0.00,,,0.00,,2013-08-23 06:22:00,
2013-08-23 01:41:00,77.0,66.0,29.77,West,270,0.0,0.0,70,0.00,,,0.00,,2013-08-23 06:41:00,
2013-08-23 01:52:00,76.0,65.0,29.77,West,270,0.0,0.0,70,0.00,,,0.00,,2013-08-23 06:52:00,
2013-08-23 02:01:00,76.0,65.0,29.77,West,270,0.0,0.0,70,0.00,,,0.00,,2013-08-23 07:01:00,
2013-08-23 02:12:00,76.0,65.0,29.77,West,270,0.0,0.0,70,0.00,,,0.00,,2013-08-23 07:12:00,
2013-08-23 02:22:00,76.0,66.0,29.77,North,360,0.0,0.0,72,0.00,,,0.00,,2013-08-23 07:22:00,
2013-08-23 02:52:00,74.0,66.0,29.76,North,360,0.0,0.0,75,0.00,,,0.00,,2013-08-23 07:52:00,
2013-08-23 03:13:00,74.0,66.0,29.76,NW,315,0.0,0.0,77,0.00,,,0.00,,2013-08-23 08:13:00,
2013-08-23 03:22:00,74.0,67.0,29.76,NE,45,0.0,0.0,78,0.00,,,0.00,,2013-08-23 08:22:00,
2013-08-23 03:32:00,74.0,67.0,29.76,NE,45,0.0,0.0,78,0.00,,,0.00,,2013-08-23 08:32:00,
2013-08-23 03:42:00,74.0,67.0,29.76,NE,45,0.0,0.0,78,0.00,,,0.00,,2013-08-23 08:42:00,
2013-08-23 03:52:00,74.0,67.0,29.76,NE,45,0.0,0.0,78,0.00,,,0.00,,2013-08-23 08:52:00,
2013-08-23 04:12:00,73.0,67.0,29.76,NE,45,0.0,0.0,81,0.00,,,0.00,,2013-08-23 09:12:00,
2013-08-23 04:21:00,73.0,67.0,29.76,NE,45,0.0,0.0,81,0.00,,,0.00,,2013-08-23 09:21:00,
2013-08-23 04:43:00,72.0,66.0,29.77,North,360,0.0,0.0,82,0.00,,,0.00,,2013-08-23 09:43:00,
2013-08-23 04:53:00,72.0,67.0,29.77,North,360,0.0,0.0,83,0.00,,,0.00,,2013-08-23 09:53:00,
2013-08-23 05:03:00,72.0,67.0,29.77,North,360,0.0,0.0,83,0.00,,,0.00,,2013-08-23 10:03:00,
2013-08-23 05:13:00,72.0,67.0,29.77,North,360,0.0,0.0,83,0.00,,,0.00,,2013-08-23 10:13:00,
2013-08-23 05:23:00,72.0,67.0,29.77,NW,315,0.0,0.0,85,0.00,,,0.00,,2013-08-23 10:23:00,
2013-08-23 05:42:00,72.0,68.0,29.77,North,360,0.0,0.0,86,0.00,,,0.00,,2013-08-23 10:42:00,
2013-08-23 05:52:00,72.0,68.0,29.77,North,360,0.0,0.0,86,0.00,,,0.00,,2013-08-23 10:52:00,
2013-08-23 06:11:00,71.0,67.0,29.77,NE,45,0.0,0.0,87,0.00,,,0.00,,2013-08-23 11:11:00,
2013-08-23 06:22:00,71.0,67.0,29.78,SE,135,0.0,0.0,88,0.00,,,0.00,,2013-08-23 11:22:00,
2013-08-23 06:42:00,71.0,67.0,29.78,NE,45,0.0,0.0,88,0.00,,,0.00,,2013-08-23 11:42:00,
2013-08-23 06:53:00,71.0,68.0,29.78,NE,45,0.0,0.0,89,0.00,,,0.00,,2013-08-23 11:53:00,
2013-08-23 07:11:00,71.0,68.0,29.78,NE,45,0.0,0.0,90,0.00,,,0.00,,2013-08-23 12:11:00,
2013-08-23 07:22:00,71.0,68.0,29.78,NE,45,0.0,0.0,90,0.00,,,0.00,,2013-08-23 12:22:00,
2013-08-23 07:42:00,71.0,68.0,29.79,NE,45,0.0,0.0,91,0.00,,,0.00,,2013-08-23 12:42:00,
2013-08-23 07:52:00,74.0,72.0,29.79,North,360,0.0,0.0,94,0.00,,,0.00,,2013-08-23 12:52:00,
2013-08-23 08:12:00,76.0,74.0,29.79,North,360,0.0,0.0,93,0.00,,,0.00,,2013-08-23 13:12:00,
2013-08-23 08:42:00,80.0,72.0,29.79,NW,315,0.0,0.0,78,0.00,,,0.00,,2013-08-23 13:42:00,
2013-08-23 08:52:00,80.0,72.0,29.79,NW,315,0.0,0.0,78,0.00,,,0.00,,2013-08-23 13:52:00,
2013-08-23 09:22:00,84.0,68.0,29.80,NW,315,0.0,0.0,58,0.00,,,0.00,,2013-08-23 14:22:00,
2013-08-23 09:42:00,85.0,69.0,29.80,NW,315,0.0,0.0,58,0.00,,,0.00,,2013-08-23 14:42:00,
2013-08-23 09:52:00,84.0,68.0,29.80,NW,315,0.0,0.0,58,0.00,,,0.00,,2013-08-23 14:52:00,
2013-08-23 10:11:00,87.0,68.0,29.80,North,360,0.0,0.0,54,0.00,,,0.00,,2013-08-23 15:11:00,
2013-08-23 10:22:00,87.0,68.0,29.80,North,360,0.0,0.0,54,0.00,,,0.00,,2013-08-23 15:22:00,
2013-08-23 10:33:00,87.0,68.0,29.80,North,360,0.0,0.0,54,0.00,,,0.00,,2013-08-23 15:33:00,
2013-08-23 10:44:00,87.0,68.0,29.80,North,360,0.0,0.0,54,0.00,,,0.00,,2013-08-23 15:44:00,
2013-08-23 10:54:00,91.0,67.0,29.81,West,270,0.0,1.0,45,0.00,,,0.00,,2013-08-23 15:54:00,
2013-08-23 11:05:00,91.0,67.0,29.81,West,270,0.0,1.0,45,0.00,,,0.00,,2013-08-23 16:05:00,
2013-08-23 11:13:00,91.0,67.0,29.81,West,270,0.0,1.0,45,0.00,,,0.00,,2013-08-23 16:13:00,
2013-08-23 11:24:00,90.0,66.0,29.80,North,360,0.0,0.0,45,0.00,,,0.00,,2013-08-23 16:24:00,
2013-08-23 11:34:00,90.0,66.0,29.80,North,360,0.0,0.0,45,0.00,,,0.00,,2013-08-23 16:34:00,
2013-08-23 11:42:00,90.0,66.0,29.80,North,360,0.0,0.0,45,0.00,,,0.00,,2013-08-23 16:42:00,
2013-08-23 11:53:00,90.0,66.0,29.80,North,360,0.0,0.0,45,0.00,,,0.00,,2013-08-23 16:53:00,
2013-08-23 12:13:00,94.0,64.0,29.79,NW,315,0.0,1.0,38,0.00,,,0.00,,2013-08-23 17:13:00,
2013-08-23 14:52:00,87.0,60.0,29.75,East,90,0.0,0.0,41,0.00,,,0.00,,2013-08-23 19:52:00,
2013-08-23 15:02:00,87.0,60.0,29.75,East,90,0.0,0.0,41,0.00,,,0.00,,2013-08-23 20:02:00,
2013-08-23 15:22:00,94.0,61.0,29.73,SW,225,0.0,0.0,34,0.00,,,0.00,,2013-08-23 20:22:00,
2013-08-23 15:42:00,96.0,61.0,29.73,North,360,0.0,0.0,32,0.00,,,0.00,,2013-08-23 20:42:00,
2013-08-23 18:43:00,100.0,61.0,29.69,North,360,0.0,0.0,28,0.00,,,0.00,,2013-08-23 23:43:00,
2013-08-23 19:53:00,94.0,65.0,29.69,NW,315,0.0,0.0,39,0.00,,,0.00,,2013-08-24 00:53:00,
2013-08-23 20:11:00,90.0,64.0,29.69,NW,315,0.0,0.0,43,0.00,,,0.00,,2013-08-24 01:11:00,
2013-08-23 20:22:00,86.0,66.0,29.70,NW,315,0.0,0.0,51,0.00,,,0.00,,2013-08-24 01:22:00,
2013-08-23 20:32:00,86.0,66.0,29.70,NW,315,0.0,0.0,51,0.00,,,0.00,,2013-08-24 01:32:00,
2013-08-23 20:42:00,86.0,66.0,29.70,NW,315,0.0,0.0,51,0.00,,,0.00,,2013-08-24 01:42:00,
2013-08-23 20:53:00,86.0,66.0,29.70,NW,315,0.0,0.0,51,0.00,,,0.00,,2013-08-24 01:53:00,
2013-08-23 21:12:00,81.0,69.0,29.71,NW,315,0.0,0.0,66,0.00,,,0.00,,2013-08-24 02:12:00,
2013-08-23 21:22:00,80.0,69.0,29.72,NW,315,0.0,0.0,69,0.00,,,0.00,,2013-08-24 02:22:00,
2013-08-23 21:32:00,80.0,69.0,29.72,NW,315,0.0,0.0,69,0.00,,,0.00,,2013-08-24 02:32:00,
2013-08-23 21:42:00,80.0,69.0,29.72,NW,315,0.0,0.0,69,0.00,,,0.00,,2013-08-24 02:42:00,
2013-08-23 21:52:00,80.0,71.0,29.73,NW,315,0.0,0.0,74,0.00,,,0.00,,2013-08-24 02:52:00,
2013-08-23 22:12:00,80.0,71.0,29.74,NW,315,0.0,0.0,73,0.00,,,0.00,,2013-08-24 03:12:00,
2013-08-23 22:22:00,80.0,69.0,29.75,North,360,0.0,0.0,70,0.00,,,0.00,,2013-08-24 03:22:00,
2013-08-23 22:44:00,80.0,69.0,29.75,North,360,0.0,0.0,70,0.00,,,0.00,,2013-08-24 03:44:00,
2013-08-23 22:54:00,80.0,68.0,29.76,NW,315,0.0,0.0,67,0.00,,,0.00,,2013-08-24 03:54:00,
2013-08-23 23:04:00,80.0,68.0,29.76,NW,315,0.0,0.0,67,0.00,,,0.00,,2013-08-24 04:04:00,
2013-08-23 23:14:00,80.0,68.0,29.76,NW,315,0.0,0.0,67,0.00,,,0.00,,2013-08-24 04:14:00,
2013-08-23 23:24:00,79.0,67.0,29.76,South,180,0.0,0.0,67,0.00,,,0.00,,2013-08-24 04:24:00,
2013-08-23 23:44:00,78.0,67.0,29.76,North,360,0.0,0.0,69,0.00,,,0.00,,2013-08-24 04:44:00,
2013-08-23 23:53:00,78.0,67.0,29.77,North,360,0.0,0.0,70,0.00,,,0.00,,2013-08-24 04:53:00,